Terminal Aerodrome Forecast
Issued by NWS Charleston, WV

Current Version | Previous Version | Graphics & Text | Print | Product List | Glossary On
Versions: 1 2 3 4 5 6 7 8 9 10 11 12 13 14 15 16 17 18 19 20 21 22 23 24 25 26 27 28
000
FTUS41 KRLX 261729
TAFCRW
TAF
KCRW 261729Z 2618/2718 19004KT P6SM VCSH BKN050 BKN120
     FM262300 17004KT P6SM VCTS BKN050CB
     FM270300 17005KT 6SM SHRA VCTS BKN040CB
     FM270500 19005KT 6SM SHRA BR VCTS BKN035CB
     FM271000 VRB03KT 5SM SHRA BR OVC025
     FM271400 22006KT 6SM BR BKN025
     FM271600 23007KT P6SM VCTS BKN040CB=

USA.gov is the U.S. government's official web portal to all federal, state and local government web resources and services.